createdAt,value
2018-02-20T00:02:04.953Z,26.50
2018-02-20T00:04:32.819Z,22.70
2018-02-20T00:07:00.724Z,25.37
2018-02-20T00:09:28.611Z,26.17
2018-02-20T00:11:56.525Z,25.57
2018-02-20T00:14:24.612Z,25.07
2018-02-20T00:16:52.484Z,25.50
2018-02-20T00:19:20.384Z,25.80
2018-02-20T00:21:48.356Z,25.07
2018-02-20T00:24:16.211Z,26.13
2018-02-20T00:26:44.167Z,26.30
2018-02-20T00:29:12.078Z,25.83
2018-02-20T00:31:40.023Z,25.33
2018-02-20T00:34:07.950Z,27.90
2018-02-20T00:36:35.825Z,25.33
2018-02-20T00:39:03.774Z,25.70
2018-02-20T00:41:31.700Z,25.73
2018-02-20T00:43:59.701Z,26.87
2018-02-20T00:46:27.564Z,27.20
2018-02-20T00:48:55.485Z,24.43
2018-02-20T00:51:23.369Z,27.40
2018-02-20T00:53:51.271Z,26.40
2018-02-20T00:56:19.195Z,27.10
2018-02-20T00:58:47.113Z,27.63
2018-02-20T01:01:15.031Z,27.90
2018-02-20T01:03:42.916Z,27.80
2018-02-20T01:06:10.920Z,28.50
2018-02-20T01:08:38.908Z,29.13
2018-02-20T01:11:06.897Z,28.90
2018-02-20T01:13:35.054Z,29.70
2018-02-20T01:16:02.976Z,31.17
2018-02-20T01:18:31.016Z,30.80
2018-02-20T01:20:59.005Z,29.40
2018-02-20T01:23:26.865Z,28.33
2018-02-20T01:25:54.798Z,28.47
2018-02-20T01:28:22.674Z,30.57
2018-02-20T01:30:50.633Z,30.80
2018-02-20T01:33:18.542Z,30.27
2018-02-20T01:35:46.522Z,29.90
2018-02-20T01:38:14.415Z,33.20
2018-02-20T01:40:42.446Z,30.43
2018-02-20T01:43:11.304Z,30.90
2018-02-20T01:45:39.216Z,32.20
2018-02-20T01:48:07.197Z,32.23
2018-02-20T01:50:35.184Z,30.70
2018-02-20T01:53:03.179Z,31.63
2018-02-20T01:55:31.055Z,32.23
2018-02-20T01:57:58.963Z,32.70
2018-02-20T02:00:26.897Z,31.70
2018-02-20T02:02:54.789Z,33.17
2018-02-20T02:05:22.756Z,34.33
2018-02-20T02:07:50.636Z,32.27
2018-02-20T02:10:18.517Z,33.60
2018-02-20T02:12:46.490Z,33.80
2018-02-20T02:15:14.409Z,34.27
2018-02-20T02:17:42.309Z,34.53
2018-02-20T02:20:10.194Z,33.50
2018-02-20T02:22:38.145Z,32.53
2018-02-20T02:25:06.016Z,35.70
2018-02-20T02:27:34.019Z,35.10
2018-02-20T02:30:01.918Z,33.50
2018-02-20T02:32:29.818Z,35.07
2018-02-20T02:34:57.770Z,34.07
2018-02-20T02:37:25.654Z,32.57
2018-02-20T02:39:53.562Z,34.70
2018-02-20T02:42:21.449Z,35.30
2018-02-20T02:44:49.358Z,33.97
2018-02-20T02:47:17.286Z,34.13
2018-02-20T02:49:45.279Z,34.70
2018-02-20T02:52:13.140Z,33.70
2018-02-20T02:54:41.090Z,35.40
2018-02-20T02:57:09.091Z,34.83
2018-02-20T02:59:37.033Z,36.00
2018-02-20T03:02:05.015Z,30.73
2018-02-20T03:04:32.907Z,33.70
2018-02-20T03:07:00.894Z,34.70
2018-02-20T03:09:28.934Z,35.50
2018-02-20T03:11:56.898Z,33.60
2018-02-20T03:14:24.816Z,31.10
2018-02-20T03:16:52.705Z,33.23
2018-02-20T03:19:20.653Z,33.30
2018-02-20T03:21:48.501Z,34.00
2018-02-20T03:24:16.352Z,36.00
2018-02-20T03:26:44.315Z,33.77
2018-02-20T03:29:12.336Z,34.23
2018-02-20T03:31:40.265Z,29.53
2018-02-20T03:34:08.170Z,35.30
2018-02-20T03:36:36.147Z,34.87
2018-02-20T03:39:04.146Z,35.97
2018-02-20T03:41:32.022Z,34.20
2018-02-20T03:43:59.901Z,34.23
2018-02-20T03:46:27.867Z,34.63
2018-02-20T03:48:55.719Z,34.40
2018-02-20T03:51:23.604Z,35.10
2018-02-20T03:53:51.473Z,35.53
2018-02-20T03:56:19.369Z,33.73
2018-02-20T03:58:47.269Z,34.60
2018-02-20T04:01:15.153Z,33.23
2018-02-20T04:03:43.035Z,34.77
2018-02-20T04:06:10.948Z,36.43
2018-02-20T04:08:38.865Z,35.50
2018-02-20T04:11:06.805Z,35.63
2018-02-20T04:13:34.728Z,35.50
2018-02-20T04:16:02.630Z,35.10
2018-02-20T04:18:31.521Z,34.50
2018-02-20T04:20:59.499Z,36.63
2018-02-20T04:23:27.356Z,34.77
2018-02-20T04:25:55.251Z,37.60
2018-02-20T04:28:23.285Z,35.47
2018-02-20T04:30:51.154Z,36.40
2018-02-20T04:33:19.123Z,35.97
2018-02-20T04:35:47.025Z,36.43
2018-02-20T04:38:15.000Z,34.50
2018-02-20T04:40:42.968Z,35.73
2018-02-20T04:43:10.889Z,37.47
2018-02-20T04:45:38.804Z,36.57
2018-02-20T04:48:06.675Z,29.77
2018-02-20T04:50:34.559Z,37.57
2018-02-20T04:53:02.497Z,38.37
2018-02-20T04:55:30.373Z,36.40
2018-02-20T04:57:58.277Z,33.63
2018-02-20T05:00:26.146Z,36.00
2018-02-20T05:02:54.032Z,36.50
2018-02-20T05:05:21.902Z,38.70
2018-02-20T05:07:49.826Z,38.77
2018-02-20T05:10:17.760Z,38.43
2018-02-20T05:12:45.664Z,38.03
2018-02-20T05:15:13.599Z,37.60
2018-02-20T05:17:41.478Z,38.00
2018-02-20T05:20:09.445Z,37.87
2018-02-20T05:22:37.408Z,35.30
2018-02-20T05:25:05.283Z,39.57
2018-02-20T05:27:33.167Z,39.30
2018-02-20T05:30:01.065Z,38.57
2018-02-20T05:32:29.090Z,40.50
2018-02-20T05:34:57.010Z,37.20
2018-02-20T05:37:25.044Z,36.40
2018-02-20T05:39:53.271Z,35.97
2018-02-20T05:42:21.216Z,35.60
2018-02-20T05:44:49.718Z,33.70
2018-02-20T05:47:17.650Z,37.37
2018-02-20T07:14:43.566Z,36.17
2018-02-20T07:17:12.268Z,36.07
2018-02-20T07:19:40.121Z,43.37
2018-02-20T07:22:08.010Z,41.97
2018-02-20T07:24:35.889Z,42.20
2018-02-20T07:27:03.746Z,41.17
2018-02-20T07:29:31.663Z,23.63
2018-02-20T07:31:59.523Z,38.23
2018-02-20T07:34:27.505Z,39.60
2018-02-20T07:36:55.395Z,39.67
2018-02-20T07:39:23.258Z,39.33
2018-02-20T07:41:52.436Z,39.50
2018-02-20T07:44:20.352Z,39.20
2018-02-20T07:46:48.219Z,41.30
2018-02-20T07:49:16.106Z,39.60
2018-02-20T07:51:43.969Z,38.50
2018-02-20T07:54:11.900Z,41.27
2018-02-20T07:56:39.816Z,36.30
2018-02-20T07:59:07.756Z,33.20
2018-02-20T08:01:35.611Z,38.50
2018-02-20T08:04:03.543Z,38.83
2018-02-20T08:06:31.393Z,32.67
2018-02-20T08:08:59.357Z,34.80
2018-02-20T08:11:27.288Z,35.13
2018-02-20T08:13:55.125Z,36.47
2018-02-20T08:16:23.035Z,35.63
2018-02-20T08:18:50.940Z,39.10
2018-02-20T08:21:18.790Z,39.47
2018-02-20T08:23:46.756Z,37.93
2018-02-20T08:26:14.745Z,33.33
2018-02-20T08:28:42.699Z,39.60
2018-02-20T08:31:10.545Z,41.23
2018-02-20T08:33:38.428Z,40.30
2018-02-20T08:36:06.365Z,35.93
2018-02-20T08:38:34.348Z,40.47
2018-02-20T08:41:02.332Z,38.57
2018-02-20T08:43:30.289Z,36.87
2018-02-20T08:45:58.163Z,36.63
2018-02-20T08:48:26.080Z,38.53
2018-02-20T08:50:53.934Z,35.77
2018-02-20T08:53:21.789Z,32.60
2018-02-20T08:55:49.672Z,35.00
2018-02-20T08:58:18.072Z,37.77
2018-02-20T09:00:45.956Z,38.47
2018-02-20T09:03:13.858Z,38.47
2018-02-20T09:05:41.721Z,39.37
2018-02-20T09:08:09.586Z,39.07
2018-02-20T09:10:38.704Z,41.37
2018-02-20T09:13:06.547Z,38.90
2018-02-20T09:15:34.447Z,41.17
2018-02-20T09:18:02.437Z,41.10
2018-02-20T09:20:30.359Z,39.43
2018-02-20T09:22:58.300Z,39.20
2018-02-20T09:25:26.232Z,38.27
2018-02-20T09:27:54.098Z,40.30
2018-02-20T09:30:21.981Z,42.53
2018-02-20T09:32:49.854Z,36.40
2018-02-20T09:35:17.734Z,40.47
2018-02-20T09:37:45.627Z,40.83
2018-02-20T09:40:13.484Z,36.93
2018-02-20T09:42:41.377Z,42.87
2018-02-20T09:45:09.349Z,42.10
2018-02-20T09:47:37.341Z,40.23
2018-02-20T09:50:05.193Z,40.00
2018-02-20T09:52:33.058Z,41.00
2018-02-20T09:55:00.911Z,38.33
2018-02-20T09:57:28.860Z,39.17
2018-02-20T09:59:56.755Z,42.30
2018-02-20T10:02:24.684Z,41.40
2018-02-20T10:04:52.543Z,40.90
2018-02-20T10:07:20.454Z,41.50
2018-02-20T10:09:48.415Z,39.50
2018-02-20T10:12:16.306Z,51.47
2018-02-20T10:14:44.157Z,41.63
2018-02-20T10:17:12.024Z,39.87
2018-02-20T10:19:39.935Z,40.27
2018-02-20T10:22:07.838Z,35.80
2018-02-20T10:24:35.802Z,47.07
2018-02-20T10:27:03.757Z,41.67
2018-02-20T10:29:31.639Z,42.30
2018-02-20T10:31:59.476Z,39.50
2018-02-20T10:34:27.342Z,43.13
2018-02-20T10:36:55.253Z,41.53
2018-02-20T10:41:56.878Z,41.57
2018-02-20T10:44:24.744Z,39.80
2018-02-20T10:46:52.657Z,40.97
2018-02-20T10:49:20.581Z,41.97
2018-02-20T10:51:48.528Z,41.50
2018-02-20T10:54:16.395Z,42.37
2018-02-20T10:56:44.305Z,38.20
2018-02-20T10:59:12.205Z,39.23
2018-02-20T11:01:40.186Z,38.20
2018-02-20T11:04:08.124Z,31.90
2018-02-20T11:06:36.020Z,36.87
2018-02-20T11:09:03.904Z,37.67
2018-02-20T11:11:31.950Z,38.77
2018-02-20T11:13:59.841Z,38.50
2018-02-20T11:16:27.731Z,38.20
2018-02-20T11:18:55.719Z,39.50
2018-02-20T11:21:23.695Z,30.30
2018-02-20T11:23:52.395Z,29.00
2018-02-20T11:26:20.296Z,28.63
2018-02-20T11:28:48.167Z,31.93
2018-02-20T11:31:16.044Z,31.30
2018-02-20T11:33:43.958Z,31.43
2018-02-20T11:36:11.831Z,30.40
2018-02-20T11:38:39.751Z,30.10
2018-02-20T11:41:07.661Z,28.07
2018-02-20T11:43:35.575Z,31.33
2018-02-20T11:46:03.456Z,30.53
2018-02-20T11:48:31.368Z,30.77
2018-02-20T11:50:59.358Z,30.67
2018-02-20T11:53:27.239Z,30.67
2018-02-20T11:55:55.218Z,29.90
2018-02-20T11:58:23.135Z,29.40
2018-02-20T12:00:51.031Z,28.67
2018-02-20T12:03:18.949Z,30.63
2018-02-20T12:05:46.830Z,27.10
2018-02-20T12:08:14.759Z,27.90
2018-02-20T12:10:42.664Z,27.13
2018-02-20T12:13:10.574Z,29.13
2018-02-20T12:15:38.495Z,28.90
2018-02-20T12:18:06.399Z,27.60
2018-02-20T12:20:34.294Z,26.50
2018-02-20T12:23:02.176Z,26.93
2018-02-20T12:25:30.098Z,27.43
2018-02-20T12:27:57.980Z,29.93
2018-02-20T12:30:25.888Z,27.20
2018-02-20T12:32:53.788Z,26.07
2018-02-20T12:35:21.684Z,25.70
2018-02-20T12:37:49.570Z,26.90
2018-02-20T12:40:17.444Z,25.73
2018-02-20T12:42:45.338Z,27.50
2018-02-20T12:45:13.244Z,24.77
2018-02-20T12:47:41.117Z,25.93
2018-02-20T12:50:09.087Z,26.03
2018-02-20T12:52:37.028Z,25.90
2018-02-20T12:55:05.671Z,23.70
2018-02-20T12:57:33.588Z,27.58
2018-02-20T13:00:01.499Z,24.00
2018-02-20T13:02:29.423Z,24.80
2018-02-20T13:04:57.395Z,24.10
2018-02-20T13:07:26.159Z,26.40
2018-02-20T13:09:54.055Z,24.70
2018-02-20T13:12:21.966Z,24.20
2018-02-20T13:14:49.997Z,23.57
2018-02-20T13:17:17.901Z,22.70
2018-02-20T13:19:45.792Z,22.93
2018-02-20T13:22:13.692Z,28.60
2018-02-20T13:24:41.625Z,23.23
2018-02-20T13:27:09.581Z,23.73
2018-02-20T13:29:37.471Z,23.17
2018-02-20T13:32:05.590Z,19.57
2018-02-20T13:34:33.501Z,23.10
2018-02-20T13:37:01.391Z,24.00
2018-02-20T13:39:29.341Z,23.00
2018-02-20T13:41:57.314Z,22.20
2018-02-20T13:44:25.300Z,22.80
2018-02-20T13:46:53.325Z,22.47
2018-02-20T13:49:21.254Z,22.33
2018-02-20T13:51:49.122Z,22.57
2018-02-20T13:54:17.031Z,23.17
2018-02-20T13:56:44.944Z,24.73
2018-02-20T13:59:12.814Z,29.83
2018-02-20T14:01:40.708Z,23.53
2018-02-20T14:04:08.615Z,22.90
2018-02-20T14:06:36.537Z,22.73
2018-02-20T14:09:04.411Z,22.93
2018-02-20T14:11:32.369Z,25.70
2018-02-20T14:14:00.406Z,23.93
2018-02-20T14:16:28.338Z,25.90
2018-02-20T14:18:56.288Z,22.90
2018-02-20T14:21:24.264Z,23.27
2018-02-20T14:23:52.201Z,23.53
2018-02-20T14:26:20.266Z,38.43
2018-02-20T14:28:48.160Z,24.30
2018-02-20T14:31:16.059Z,22.50
2018-02-20T14:33:43.951Z,22.03
2018-02-20T14:36:11.840Z,21.80
2018-02-20T14:38:39.784Z,22.10
2018-02-20T14:41:07.705Z,21.90
2018-02-20T14:43:35.595Z,20.67
2018-02-20T14:46:03.540Z,20.47
2018-02-20T14:48:31.520Z,20.90
2018-02-20T14:50:59.404Z,19.07
2018-02-20T14:53:27.426Z,19.10
2018-02-20T14:55:55.314Z,18.17
2018-02-20T14:58:23.214Z,18.97
2018-02-20T15:00:52.941Z,17.57
2018-02-20T15:03:20.827Z,15.40
2018-02-20T15:05:48.752Z,15.73
2018-02-20T15:08:16.689Z,16.40
2018-02-20T15:10:44.571Z,15.87
2018-02-20T15:13:12.481Z,17.30
2018-02-20T15:15:40.429Z,14.20
2018-02-20T15:18:08.369Z,16.13
2018-02-20T15:20:36.250Z,16.10
2018-02-20T15:23:04.160Z,15.03
2018-02-20T15:25:32.249Z,15.20
2018-02-20T15:28:00.184Z,15.57
2018-02-20T15:30:28.083Z,15.23
2018-02-20T15:32:56.021Z,16.67
2018-02-20T15:35:23.937Z,15.60
2018-02-20T15:37:51.901Z,15.50
2018-02-20T15:40:19.804Z,16.50
2018-02-20T15:42:47.693Z,15.50
2018-02-20T15:45:15.588Z,15.10
2018-02-20T15:47:44.119Z,16.00
2018-02-20T15:50:12.016Z,14.90
2018-02-20T15:52:39.903Z,13.43
2018-02-20T15:55:07.821Z,14.43
2018-02-20T15:57:36.531Z,14.47
2018-02-20T16:00:04.465Z,15.30
2018-02-20T16:02:32.429Z,14.70
2018-02-20T16:05:00.346Z,16.00
2018-02-20T16:07:28.253Z,14.63
2018-02-20T16:09:56.200Z,15.67
2018-02-20T16:12:24.108Z,15.57
2018-02-20T16:14:52.008Z,16.27
2018-02-20T16:17:19.936Z,15.07
2018-02-20T16:19:47.886Z,14.27
2018-02-20T16:22:15.775Z,14.17
2018-02-20T16:24:43.712Z,15.43
2018-02-20T16:27:11.603Z,14.50
2018-02-20T16:29:39.512Z,15.20
2018-02-20T16:32:07.392Z,14.97
2018-02-20T16:34:35.353Z,13.00
2018-02-20T16:37:03.298Z,15.53
2018-02-20T16:39:31.196Z,13.30
2018-02-20T16:41:59.105Z,14.20
2018-02-20T16:44:27.022Z,14.10
2018-02-20T16:46:54.962Z,14.43
2018-02-20T16:49:23.936Z,13.77
2018-02-20T16:51:51.836Z,14.43
2018-02-20T16:54:19.964Z,13.07
2018-02-20T16:56:47.829Z,14.60
2018-02-20T16:59:15.735Z,13.20
2018-02-20T17:01:43.625Z,13.13
2018-02-20T17:04:11.499Z,15.40
2018-02-20T17:06:39.497Z,14.43
2018-02-20T17:09:07.435Z,12.50
2018-02-20T17:11:35.332Z,14.87
2018-02-20T17:14:03.256Z,13.03
2018-02-20T17:16:31.137Z,14.00
2018-02-20T17:18:59.024Z,14.33
2018-02-20T17:21:26.974Z,14.37
2018-02-20T17:23:57.503Z,15.60
2018-02-20T17:26:25.404Z,16.57
2018-02-20T17:28:53.348Z,15.40
2018-02-20T17:31:22.221Z,15.60
2018-02-20T17:33:50.144Z,16.70
2018-02-20T17:36:18.022Z,14.83
2018-02-20T17:38:45.929Z,16.23
2018-02-20T17:41:13.852Z,15.87
2018-02-20T17:43:41.732Z,16.37
2018-02-20T17:46:09.637Z,16.20
2018-02-20T17:48:37.588Z,15.80
2018-02-20T17:51:05.465Z,16.60
2018-02-20T17:53:33.396Z,15.43
2018-02-20T17:56:01.702Z,21.10
2018-02-20T17:58:29.634Z,14.50
2018-02-20T18:00:57.508Z,15.10
2018-02-20T18:03:25.424Z,16.10
2018-02-20T18:05:53.368Z,13.73
2018-02-20T18:08:21.244Z,15.33
2018-02-20T18:10:49.205Z,13.60
2018-02-20T18:13:17.088Z,14.90
2018-02-20T18:15:44.972Z,14.67
2018-02-20T18:18:12.924Z,14.80
2018-02-20T18:20:40.800Z,14.10
2018-02-20T18:23:08.729Z,13.77
2018-02-20T18:25:36.917Z,15.77
2018-02-20T18:28:04.880Z,17.07
2018-02-20T18:30:32.772Z,16.23
2018-02-20T18:33:01.878Z,15.70
2018-02-20T18:35:29.905Z,15.30
2018-02-20T18:37:57.833Z,14.20
2018-02-20T18:40:25.768Z,15.20
2018-02-20T18:42:53.736Z,16.80
2018-02-20T18:45:21.780Z,16.53
2018-02-20T18:47:49.747Z,15.97
2018-02-20T18:50:19.228Z,15.37
2018-02-20T18:52:47.128Z,15.40
2018-02-20T18:55:15.057Z,16.47
2018-02-20T18:57:43.000Z,18.60
2018-02-20T19:00:10.919Z,14.20
2018-02-20T19:02:38.777Z,15.90
2018-02-20T19:05:06.703Z,15.87
2018-02-20T19:07:34.608Z,15.60
2018-02-20T19:10:02.515Z,16.43
2018-02-20T19:12:30.419Z,17.30
2018-02-20T19:14:58.296Z,16.20
2018-02-20T19:17:26.280Z,16.77
2018-02-20T19:19:54.216Z,18.20
2018-02-20T19:22:22.121Z,16.20
2018-02-20T19:24:50.020Z,18.30
2018-02-20T19:27:17.933Z,17.17
2018-02-20T19:29:45.850Z,17.40
2018-02-20T19:32:13.743Z,17.40
2018-02-20T19:34:41.744Z,17.40
2018-02-20T19:37:09.639Z,18.33
2018-02-20T19:39:37.580Z,17.97
2018-02-20T19:42:05.509Z,20.70
2018-02-20T19:44:33.392Z,17.53
2018-02-20T19:47:01.443Z,18.93
2018-02-20T19:49:29.398Z,19.10
2018-02-20T19:51:57.387Z,19.07
2018-02-20T19:54:25.335Z,19.33
2018-02-20T19:56:53.202Z,19.87
2018-02-20T19:59:21.117Z,21.30
2018-02-20T20:01:49.043Z,21.83
2018-02-20T20:04:16.961Z,20.80
2018-02-20T20:06:45.145Z,22.30
2018-02-20T20:09:13.273Z,21.40
2018-02-20T20:11:41.208Z,21.50
2018-02-20T20:14:09.100Z,22.87
2018-02-20T20:16:38.085Z,20.90
2018-02-20T20:19:06.055Z,23.13
2018-02-20T20:21:34.104Z,22.83
2018-02-20T20:24:02.083Z,21.43
2018-02-20T20:26:29.970Z,21.60
2018-02-20T20:28:58.027Z,21.90
2018-02-20T20:31:25.954Z,24.10
2018-02-20T20:33:54.341Z,24.40
2018-02-20T20:36:22.315Z,21.90
2018-02-20T20:38:50.246Z,21.73
2018-02-20T20:41:18.251Z,26.00
2018-02-20T20:43:46.259Z,25.80
2018-02-20T20:46:15.012Z,25.00
2018-02-20T20:48:43.012Z,24.77
2018-02-20T20:51:11.846Z,23.13
2018-02-20T20:53:39.840Z,24.30
2018-02-20T20:56:07.781Z,22.67
2018-02-20T20:58:35.658Z,25.67
2018-02-20T21:01:04.501Z,25.30
2018-02-20T21:03:32.448Z,25.97
2018-02-20T21:06:00.377Z,24.50
2018-02-20T21:08:28.321Z,25.47
2018-02-20T21:10:56.321Z,24.30
2018-02-20T21:13:24.238Z,24.40
2018-02-20T21:15:52.515Z,24.90
2018-02-20T21:18:20.481Z,25.97
2018-02-20T21:20:51.452Z,24.37
2018-02-20T21:23:19.518Z,24.60
2018-02-20T21:25:47.485Z,25.20
2018-02-20T21:28:15.545Z,27.63
2018-02-20T21:30:43.721Z,25.33
2018-02-20T21:33:11.732Z,27.77
2018-02-20T21:35:39.649Z,26.20
2018-02-20T21:38:07.876Z,25.60
2018-02-20T21:40:36.021Z,25.33
2018-02-20T21:43:04.088Z,24.33
2018-02-20T21:45:32.122Z,24.90
2018-02-20T21:48:00.387Z,25.93
2018-02-20T21:50:28.595Z,24.93
2018-02-20T21:52:56.967Z,25.87
2018-02-20T21:55:26.014Z,25.40
2018-02-20T21:57:54.170Z,26.37
2018-02-20T22:00:22.076Z,24.53
2018-02-20T22:02:50.059Z,24.33
2018-02-20T22:05:18.135Z,22.73
2018-02-20T22:07:46.128Z,23.53
2018-02-20T22:10:14.069Z,22.17
2018-02-20T22:12:41.957Z,21.20
2018-02-20T22:15:09.861Z,22.30
2018-02-20T22:17:37.764Z,21.40
2018-02-20T22:20:05.700Z,20.37
2018-02-20T22:22:33.736Z,20.23
2018-02-20T22:25:01.629Z,20.60
2018-02-20T22:27:29.610Z,21.23
2018-02-20T22:29:57.519Z,22.47
2018-02-20T22:32:25.445Z,22.37
2018-02-20T22:34:53.371Z,20.27
2018-02-20T22:37:21.242Z,21.40
2018-02-20T22:39:49.121Z,20.70
2018-02-20T22:42:17.752Z,20.80
2018-02-20T22:44:45.682Z,18.60
2018-02-20T22:47:13.756Z,20.53
2018-02-20T22:49:41.742Z,22.10
2018-02-20T22:52:09.632Z,19.87
2018-02-20T22:54:38.456Z,20.53
2018-02-20T22:57:07.314Z,20.70
2018-02-20T22:59:35.184Z,21.40
2018-02-20T23:02:03.643Z,20.47
2018-02-20T23:04:32.688Z,21.40
2018-02-20T23:07:00.669Z,19.37
2018-02-20T23:09:28.602Z,20.60
2018-02-20T23:11:56.576Z,21.67
2018-02-20T23:14:25.193Z,19.73
2018-02-20T23:16:53.604Z,19.73
2018-02-20T23:19:21.526Z,20.40
2018-02-20T23:21:49.424Z,21.40
2018-02-20T23:24:18.231Z,19.73
2018-02-20T23:26:46.142Z,19.57
2018-02-20T23:29:14.087Z,19.00
2018-02-20T23:31:41.964Z,17.47
2018-02-20T23:34:09.966Z,20.80
2018-02-20T23:36:37.885Z,21.10
2018-02-20T23:39:05.785Z,20.40
2018-02-20T23:41:33.725Z,20.53
2018-02-20T23:44:01.729Z,18.13
2018-02-20T23:46:31.787Z,19.80
2018-02-20T23:49:00.003Z,19.60
2018-02-20T23:51:33.920Z,21.27
2018-02-20T23:54:01.793Z,21.93
2018-02-20T23:56:31.941Z,20.27
2018-02-20T23:59:07.166Z,20.13
